createdAt,value
2018-10-02T00:02:26.059Z,1.57
2018-10-02T00:04:54.329Z,1.60
2018-10-02T00:07:22.663Z,1.60
2018-10-02T00:09:50.918Z,1.40
2018-10-02T00:12:24.550Z,1.40
2018-10-02T00:14:52.876Z,1.53
2018-10-02T00:17:21.157Z,1.73
2018-10-02T00:19:49.439Z,1.60
2018-10-02T00:22:17.746Z,1.37
2018-10-02T00:24:46.036Z,1.60
2018-10-02T00:27:14.307Z,1.23
2018-10-02T00:29:42.587Z,1.13
2018-10-02T00:32:10.954Z,1.60
2018-10-02T00:34:39.154Z,1.57
2018-10-02T00:37:07.418Z,1.50
2018-10-02T00:39:35.772Z,1.50
2018-10-02T00:42:04.027Z,1.67
2018-10-02T00:44:32.315Z,1.40
2018-10-02T00:47:00.632Z,1.27
2018-10-02T00:49:28.923Z,1.33
2018-10-02T00:51:57.208Z,1.40
2018-10-02T00:54:25.479Z,1.40
2018-10-02T00:56:53.783Z,1.33
2018-10-02T00:59:22.055Z,1.70
2018-10-02T01:01:50.316Z,1.13
2018-10-02T01:04:18.602Z,1.20
2018-10-02T01:06:46.880Z,1.43
2018-10-02T01:09:15.216Z,2.00
2018-10-02T01:11:43.723Z,1.53
2018-10-02T01:14:12.553Z,1.50
2018-10-02T01:16:40.819Z,1.27
2018-10-02T01:19:09.124Z,1.50
2018-10-02T01:21:37.420Z,1.30
2018-10-02T01:24:05.695Z,2.10
2018-10-02T01:26:33.971Z,1.23
2018-10-02T01:29:02.235Z,1.30
2018-10-02T01:31:30.547Z,1.33
2018-10-02T01:33:58.817Z,1.57
2018-10-02T01:36:27.120Z,1.30
2018-10-02T01:38:55.415Z,1.20
2018-10-02T01:41:23.754Z,1.40
2018-10-02T01:43:52.040Z,1.30
2018-10-02T01:46:20.317Z,1.30
2018-10-02T01:48:48.636Z,1.47
2018-10-02T01:51:16.907Z,1.37
2018-10-02T01:53:45.177Z,1.33
2018-10-02T01:56:13.464Z,1.70
2018-10-02T01:58:41.725Z,1.33
2018-10-02T02:01:09.987Z,3.07
2018-10-02T02:03:38.267Z,1.53
2018-10-02T02:06:06.577Z,1.63
2018-10-02T02:08:34.823Z,1.40
2018-10-02T02:11:03.091Z,1.60
2018-10-02T02:13:31.369Z,1.40
2018-10-02T02:15:59.641Z,1.50
2018-10-02T02:18:27.899Z,1.40
2018-10-02T02:20:56.184Z,2.10
2018-10-02T02:23:24.472Z,1.67
2018-10-02T02:25:52.744Z,1.13
2018-10-02T02:28:20.996Z,1.40
2018-10-02T02:30:49.280Z,1.73
2018-10-02T02:33:17.573Z,1.50
2018-10-02T02:35:45.840Z,1.70
2018-10-02T02:38:14.092Z,1.67
2018-10-02T02:40:42.380Z,1.60
2018-10-02T02:43:10.668Z,1.40
2018-10-02T02:45:39.908Z,1.23
2018-10-02T02:48:13.628Z,1.57
2018-10-02T02:50:46.014Z,1.60
2018-10-02T02:53:16.524Z,1.30
2018-10-02T02:55:45.192Z,1.40
2018-10-02T02:58:13.472Z,1.60
2018-10-02T03:00:41.742Z,1.63
2018-10-02T03:03:10.016Z,1.30
2018-10-02T03:05:38.296Z,1.93
2018-10-02T03:08:06.656Z,1.60
2018-10-02T03:10:34.924Z,1.40
2018-10-02T03:13:03.201Z,1.20
2018-10-02T03:15:31.486Z,1.63
2018-10-02T03:17:59.759Z,1.53
2018-10-02T03:20:28.081Z,1.50
2018-10-02T03:22:56.364Z,1.50
2018-10-02T03:25:24.649Z,1.50
2018-10-02T03:27:52.910Z,1.60
2018-10-02T03:30:21.178Z,1.63
2018-10-02T03:32:49.439Z,1.70
2018-10-02T03:35:17.709Z,1.70
2018-10-02T03:37:46.113Z,1.63
2018-10-02T03:40:14.379Z,1.50
2018-10-02T03:42:42.635Z,1.37
2018-10-02T03:45:10.916Z,1.33
2018-10-02T03:47:39.181Z,2.33
2018-10-02T03:50:07.436Z,1.53
2018-10-02T03:52:35.698Z,1.37
2018-10-02T03:55:04.057Z,1.40
2018-10-02T03:57:32.328Z,1.50
2018-10-02T04:00:00.685Z,1.27
2018-10-02T04:02:28.978Z,1.37
2018-10-02T04:04:57.360Z,1.47
2018-10-02T04:07:25.646Z,1.43
2018-10-02T04:09:53.891Z,1.60
2018-10-02T04:12:22.170Z,1.77
2018-10-02T04:14:50.467Z,1.53
2018-10-02T04:17:18.725Z,1.80
2018-10-02T04:19:47.048Z,1.80
2018-10-02T04:22:15.306Z,1.47
2018-10-02T04:24:43.575Z,1.60
2018-10-02T04:27:11.841Z,1.37
2018-10-02T04:29:40.205Z,1.87
2018-10-02T04:32:08.493Z,2.13
2018-10-02T04:34:36.770Z,1.30
2018-10-02T04:37:05.141Z,2.20
2018-10-02T04:39:33.428Z,1.83
2018-10-02T04:42:01.696Z,2.90
2018-10-02T04:44:29.985Z,1.53
2018-10-02T04:46:58.251Z,1.70
2018-10-02T04:49:26.537Z,1.50
2018-10-02T04:51:54.799Z,1.63
2018-10-02T04:54:23.095Z,1.90
2018-10-02T04:56:51.380Z,1.70
2018-10-02T04:59:19.689Z,1.73
2018-10-02T05:01:47.956Z,2.00
2018-10-02T05:04:16.230Z,1.87
2018-10-02T05:06:44.499Z,1.70
2018-10-02T05:09:12.782Z,1.90
2018-10-02T05:11:41.062Z,1.67
2018-10-02T05:14:09.368Z,1.83
2018-10-02T05:16:37.601Z,1.83
2018-10-02T05:19:05.879Z,1.83
2018-10-02T05:21:34.157Z,2.00
2018-10-02T05:24:02.424Z,1.77
2018-10-02T05:26:30.709Z,1.73
2018-10-02T05:28:58.984Z,2.00
2018-10-02T05:31:27.278Z,2.47
2018-10-02T05:33:55.563Z,1.97
2018-10-02T05:36:23.869Z,2.07
2018-10-02T05:38:52.148Z,1.57
2018-10-02T05:41:20.433Z,2.37
2018-10-02T05:43:48.756Z,1.83
2018-10-02T05:46:17.054Z,2.37
2018-10-02T05:48:45.329Z,2.03
2018-10-02T05:51:13.619Z,1.60
2018-10-02T05:53:41.906Z,2.30
2018-10-02T05:56:10.214Z,1.90
2018-10-02T05:58:38.524Z,1.90
2018-10-02T06:01:07.147Z,2.43
2018-10-02T06:03:35.471Z,2.30
2018-10-02T06:06:03.706Z,2.00
2018-10-02T06:08:31.996Z,2.17
2018-10-02T06:11:00.276Z,2.00
2018-10-02T06:13:28.595Z,2.63
2018-10-02T06:15:57.591Z,2.20
2018-10-02T06:18:26.416Z,2.30
2018-10-02T06:20:54.687Z,2.47
2018-10-02T06:23:22.956Z,2.00
2018-10-02T06:25:51.222Z,2.50
2018-10-02T06:28:19.489Z,2.23
2018-10-02T06:30:47.845Z,2.43
2018-10-02T06:33:16.118Z,2.30
2018-10-02T06:35:44.425Z,2.33
2018-10-02T06:38:12.768Z,2.23
2018-10-02T06:40:40.984Z,2.43
2018-10-02T06:43:09.260Z,2.03
2018-10-02T06:45:37.641Z,2.37
2018-10-02T06:48:06.031Z,2.10
2018-10-02T06:50:34.629Z,2.20
2018-10-02T06:53:02.902Z,2.50
2018-10-02T06:55:31.193Z,2.20
2018-10-02T06:57:59.461Z,2.23
2018-10-02T07:00:27.746Z,2.60
2018-10-02T07:02:57.716Z,2.40
2018-10-02T07:05:25.907Z,3.07
2018-10-02T07:07:54.220Z,2.23
2018-10-02T07:10:22.492Z,2.20
2018-10-02T07:12:50.772Z,2.77
2018-10-02T07:15:19.080Z,2.30
2018-10-02T07:17:47.369Z,2.80
2018-10-02T07:20:15.635Z,2.63
2018-10-02T07:22:43.932Z,2.40
2018-10-02T07:25:12.210Z,2.40
2018-10-02T07:27:40.601Z,2.20
2018-10-02T07:30:08.772Z,2.60
2018-10-02T07:32:37.091Z,2.43
2018-10-02T07:35:05.342Z,2.80
2018-10-02T07:37:33.620Z,2.00
2018-10-02T07:40:02.146Z,3.10
2018-10-02T07:42:30.625Z,2.40
2018-10-02T07:44:58.812Z,2.60
2018-10-02T07:47:27.112Z,2.27
2018-10-02T07:49:55.339Z,2.37
2018-10-02T07:52:23.627Z,2.17
2018-10-02T07:54:51.904Z,2.27
2018-10-02T07:57:20.224Z,2.10
2018-10-02T07:59:48.503Z,2.10
2018-10-02T08:02:16.832Z,2.23
2018-10-02T08:04:45.118Z,2.20
2018-10-02T08:07:13.351Z,2.43
2018-10-02T08:09:41.649Z,2.40
2018-10-02T08:12:10.008Z,1.97
2018-10-02T08:14:38.264Z,2.23
2018-10-02T08:17:06.556Z,2.03
2018-10-02T08:19:34.863Z,2.30
2018-10-02T08:22:03.125Z,2.13
2018-10-02T08:24:31.417Z,2.40
2018-10-02T08:26:59.738Z,2.30
2018-10-02T08:29:28.047Z,1.87
2018-10-02T08:31:56.285Z,2.20
2018-10-02T08:34:24.561Z,1.93
2018-10-02T08:36:52.864Z,2.50
2018-10-02T08:39:21.150Z,2.10
2018-10-02T08:41:49.501Z,2.07
2018-10-02T08:44:17.765Z,2.20
2018-10-02T08:46:46.057Z,2.20
2018-10-02T08:49:14.345Z,2.00
2018-10-02T08:51:42.709Z,2.30
2018-10-02T08:54:10.933Z,2.10
2018-10-02T08:56:39.381Z,2.13
2018-10-02T08:59:07.872Z,2.30
2018-10-02T09:01:36.305Z,1.87
2018-10-02T09:04:04.623Z,1.90
2018-10-02T09:06:32.946Z,1.97
2018-10-02T09:09:01.176Z,1.80
2018-10-02T09:11:29.461Z,2.20
2018-10-02T09:13:57.769Z,1.80
2018-10-02T09:16:26.414Z,1.90
2018-10-02T09:18:54.709Z,2.03
2018-10-02T09:21:22.951Z,1.90
2018-10-02T09:23:51.295Z,1.97
2018-10-02T09:26:19.648Z,1.90
2018-10-02T09:28:48.076Z,2.20
2018-10-02T09:31:21.889Z,1.90
2018-10-02T09:33:55.602Z,1.87
2018-10-02T09:36:29.276Z,2.20
2018-10-02T09:39:02.987Z,1.87
2018-10-02T09:41:36.716Z,2.00
2018-10-02T09:44:05.552Z,1.83
2018-10-02T09:46:33.791Z,1.63
2018-10-02T09:49:02.774Z,1.90
2018-10-02T09:51:31.084Z,1.97
2018-10-02T09:53:59.369Z,1.60
2018-10-02T09:56:33.963Z,2.00
2018-10-02T09:59:02.209Z,1.63
2018-10-02T10:01:35.999Z,1.70
2018-10-02T10:04:04.387Z,1.80
2018-10-02T10:06:32.785Z,1.90
2018-10-02T10:09:01.082Z,1.73
2018-10-02T10:11:29.345Z,1.87
2018-10-02T10:13:57.639Z,1.97
2018-10-02T10:16:25.980Z,2.10
2018-10-02T10:18:54.441Z,1.80
2018-10-02T10:21:23.397Z,1.63
2018-10-02T10:23:51.709Z,1.70
2018-10-02T10:26:20.016Z,1.80
2018-10-02T10:28:48.312Z,1.70
2018-10-02T10:31:16.573Z,1.70
2018-10-02T10:33:44.849Z,1.70
2018-10-02T10:36:13.163Z,1.50
2018-10-02T10:38:41.481Z,1.30
2018-10-02T10:41:09.928Z,1.70
2018-10-02T10:43:38.169Z,1.50
2018-10-02T10:46:06.462Z,1.63
2018-10-02T10:48:36.538Z,1.60
2018-10-02T10:51:04.838Z,1.30
2018-10-02T10:53:33.352Z,1.50
2018-10-02T10:56:01.934Z,1.80
2018-10-02T10:58:30.436Z,1.93
2018-10-02T11:00:58.735Z,1.40
2018-10-02T11:03:27.093Z,1.50
2018-10-02T11:05:55.430Z,1.50
2018-10-02T11:08:23.757Z,2.00
2018-10-02T11:10:52.128Z,1.50
2018-10-02T11:13:20.426Z,1.50
2018-10-02T11:15:48.751Z,1.20
2018-10-02T11:18:17.074Z,1.43
2018-10-02T11:20:45.494Z,1.30
2018-10-02T11:23:13.834Z,1.53
2018-10-02T11:25:42.263Z,1.80
2018-10-02T11:28:10.539Z,1.47
2018-10-02T11:30:38.845Z,1.30
2018-10-02T11:33:07.168Z,1.47
2018-10-02T11:35:35.654Z,1.30
2018-10-02T11:38:03.927Z,2.00
2018-10-02T11:40:32.262Z,1.70
2018-10-02T11:43:00.615Z,2.10
2018-10-02T11:45:28.931Z,1.30
2018-10-02T11:47:58.181Z,1.40
2018-10-02T11:50:26.506Z,1.30
2018-10-02T11:52:54.830Z,1.40
2018-10-02T11:55:23.239Z,1.50
2018-10-02T11:57:51.490Z,1.60
2018-10-02T12:00:19.948Z,1.33
2018-10-02T12:02:48.210Z,1.30
2018-10-02T12:05:16.564Z,1.30
2018-10-02T12:07:44.921Z,1.40
2018-10-02T12:10:13.257Z,1.23
2018-10-02T12:12:41.585Z,1.30
2018-10-02T12:15:09.877Z,1.20
2018-10-02T12:17:38.177Z,1.40
2018-10-02T12:20:06.472Z,1.13
2018-10-02T12:22:34.777Z,1.10
2018-10-02T12:25:03.081Z,1.13
2018-10-02T12:27:31.383Z,1.50
2018-10-02T12:29:59.672Z,1.50
2018-10-02T12:32:27.979Z,1.60
2018-10-02T12:34:56.266Z,1.37
2018-10-02T12:37:24.678Z,1.30
2018-10-02T12:39:52.971Z,1.30
2018-10-02T12:42:21.984Z,1.77
2018-10-02T12:44:50.856Z,1.33
2018-10-02T12:47:19.754Z,1.37
2018-10-02T12:49:48.225Z,1.40
2018-10-02T12:52:16.576Z,1.47
2018-10-02T12:54:44.817Z,1.10
2018-10-02T12:57:13.122Z,1.20
2018-10-02T12:59:41.445Z,1.13
2018-10-02T13:02:09.721Z,1.23
2018-10-02T13:04:38.031Z,1.13
2018-10-02T13:07:06.362Z,1.40
2018-10-02T13:09:34.577Z,1.13
2018-10-02T13:12:02.855Z,1.17
2018-10-02T13:14:31.148Z,1.20
2018-10-02T13:17:00.693Z,1.20
2018-10-02T13:19:29.229Z,1.47
2018-10-02T13:21:57.514Z,1.27
2018-10-02T13:24:25.789Z,1.30
2018-10-02T13:26:54.047Z,1.17
2018-10-02T13:29:22.347Z,1.17
2018-10-02T13:31:50.650Z,1.17
2018-10-02T13:34:19.471Z,1.23
2018-10-02T13:36:48.321Z,1.20
2018-10-02T13:39:16.594Z,1.60
2018-10-02T13:41:44.901Z,1.43
2018-10-02T13:44:13.201Z,1.47
2018-10-02T13:46:42.098Z,1.27
2018-10-02T13:49:10.422Z,1.33
2018-10-02T13:51:39.248Z,1.20
2018-10-02T13:54:07.541Z,1.20
2018-10-02T13:56:35.830Z,0.93
2018-10-02T13:59:04.108Z,1.10
2018-10-02T14:01:32.380Z,1.10
2018-10-02T14:04:00.660Z,1.20
2018-10-02T14:06:28.948Z,1.07
2018-10-02T14:08:57.236Z,1.17
2018-10-02T14:11:25.538Z,1.10
2018-10-02T14:13:53.833Z,1.10
2018-10-02T14:16:22.236Z,1.20
2018-10-02T14:18:51.119Z,1.00
2018-10-02T14:21:19.430Z,0.97
2018-10-02T14:23:47.696Z,1.07
2018-10-02T14:26:16.004Z,1.00
2018-10-02T14:28:44.288Z,1.27
2018-10-02T14:31:12.622Z,0.90
2018-10-02T14:33:40.914Z,1.27
2018-10-02T14:36:09.217Z,1.23
2018-10-02T14:38:37.487Z,1.10
2018-10-02T14:41:05.774Z,1.23
2018-10-02T14:43:34.082Z,1.20
2018-10-02T14:46:02.852Z,1.33
2018-10-02T14:48:31.524Z,1.30
2018-10-02T14:50:59.866Z,1.10
2018-10-02T14:53:28.140Z,1.30
2018-10-02T14:55:56.404Z,0.90
2018-10-02T14:58:24.691Z,0.97
2018-10-02T15:00:53.082Z,1.00
2018-10-02T15:03:21.405Z,1.57
2018-10-02T15:05:49.994Z,1.10
2018-10-02T15:08:18.384Z,1.03
2018-10-02T15:10:46.679Z,1.00
2018-10-02T15:13:15.436Z,1.30
2018-10-02T15:15:43.752Z,1.20
2018-10-02T15:18:12.117Z,1.30
2018-10-02T15:20:40.316Z,1.20
2018-10-02T15:23:08.695Z,1.10
2018-10-02T15:25:37.001Z,0.97
2018-10-02T15:28:05.280Z,1.00
2018-10-02T15:30:33.570Z,1.27
2018-10-02T15:33:01.871Z,1.13
2018-10-02T15:35:30.184Z,0.80
2018-10-02T15:37:58.528Z,1.63
2018-10-02T15:40:26.794Z,1.17
2018-10-02T15:42:55.074Z,1.07
2018-10-02T15:45:23.464Z,1.10
2018-10-02T15:47:51.750Z,1.10
2018-10-02T15:50:20.090Z,1.00
2018-10-02T15:52:48.372Z,1.10
2018-10-02T15:55:16.689Z,1.20
2018-10-02T15:57:44.996Z,1.13
2018-10-02T16:00:13.304Z,1.20
2018-10-02T16:02:41.616Z,1.20
2018-10-02T16:05:09.876Z,1.20
2018-10-02T16:07:38.261Z,1.10
2018-10-02T16:10:06.601Z,1.00
2018-10-02T16:12:34.941Z,1.10
2018-10-02T16:15:03.243Z,0.80
2018-10-02T16:17:31.545Z,1.10
2018-10-02T16:19:59.856Z,1.10
2018-10-02T16:22:28.140Z,1.10
2018-10-02T16:24:56.771Z,1.00
2018-10-02T16:27:24.944Z,1.10
2018-10-02T16:29:53.233Z,1.10
2018-10-02T16:32:21.538Z,1.20
2018-10-02T16:34:49.917Z,1.07
2018-10-02T16:37:18.992Z,1.20
2018-10-02T16:39:47.268Z,1.10
2018-10-02T16:42:16.133Z,1.23
2018-10-02T16:44:44.496Z,1.00
2018-10-02T16:47:12.867Z,1.30
2018-10-02T16:49:41.134Z,1.00
2018-10-02T16:52:09.449Z,1.10
2018-10-02T16:54:37.823Z,2.87
2018-10-02T16:57:06.506Z,1.17
2018-10-02T16:59:34.877Z,0.87
2018-10-02T17:02:03.189Z,1.03
2018-10-02T17:04:32.190Z,1.10
2018-10-02T17:07:00.512Z,1.20
2018-10-02T17:09:28.806Z,1.23
2018-10-02T17:11:57.134Z,1.10
2018-10-02T17:14:25.409Z,1.00
2018-10-02T17:16:53.696Z,0.90
2018-10-02T17:19:22.020Z,1.33
2018-10-02T17:21:50.321Z,1.10
2018-10-02T17:24:18.642Z,1.17
2018-10-02T17:26:46.934Z,0.90
2018-10-02T17:29:15.239Z,1.00
2018-10-02T17:31:43.530Z,0.90
2018-10-02T17:34:11.854Z,1.20
2018-10-02T17:36:40.192Z,1.00
2018-10-02T17:39:09.944Z,1.00
2018-10-02T17:41:38.626Z,1.10
2018-10-02T17:44:07.035Z,1.10
2018-10-02T17:46:35.358Z,1.00
2018-10-02T17:49:04.064Z,0.90
2018-10-02T17:51:32.317Z,1.00
2018-10-02T17:54:00.702Z,1.20
2018-10-02T17:56:29.032Z,1.00
2018-10-02T17:58:57.405Z,1.10
2018-10-02T18:01:25.755Z,0.90
2018-10-02T18:03:54.044Z,1.03
2018-10-02T18:06:22.457Z,1.00
2018-10-02T18:08:50.790Z,0.90
2018-10-02T18:11:19.216Z,1.03
2018-10-02T18:13:47.526Z,1.23
2018-10-02T18:16:16.594Z,1.07
2018-10-02T18:18:44.901Z,1.10
2018-10-02T18:21:13.195Z,1.20
2018-10-02T18:23:41.523Z,0.90
2018-10-02T18:26:10.846Z,1.00
2018-10-02T18:28:39.183Z,0.90
2018-10-02T18:31:07.564Z,0.90
2018-10-02T18:33:35.911Z,0.90
2018-10-02T18:36:04.563Z,0.90
2018-10-02T18:38:32.959Z,1.00
2018-10-02T18:41:01.285Z,0.90
2018-10-02T18:43:29.701Z,0.90
2018-10-02T18:45:58.360Z,1.00
2018-10-02T18:48:27.038Z,1.00
2018-10-02T18:50:55.488Z,0.80
2018-10-02T18:53:23.936Z,0.83
2018-10-02T18:55:52.281Z,1.20
2018-10-02T18:58:21.033Z,0.80
2018-10-02T19:00:49.429Z,0.80
2018-10-02T19:03:17.846Z,0.87
2018-10-02T19:05:46.631Z,0.83
2018-10-02T19:08:14.985Z,0.93
2018-10-02T19:10:43.364Z,1.10
2018-10-02T19:13:11.745Z,0.90
2018-10-02T19:16:45.633Z,0.93
2018-10-02T19:19:19.437Z,0.90
2018-10-02T19:21:48.096Z,1.00
2018-10-02T19:24:16.466Z,1.10
2018-10-02T19:26:44.834Z,0.90
2018-10-02T19:29:13.583Z,1.00
2018-10-02T19:31:47.321Z,1.23
2018-10-02T19:34:16.027Z,0.80
2018-10-02T19:36:44.427Z,0.93
2018-10-02T19:39:18.818Z,0.90
2018-10-02T19:41:47.386Z,0.70
2018-10-02T19:44:15.775Z,0.90
2018-10-02T19:46:48.970Z,1.00
2018-10-02T19:49:19.706Z,0.70
2018-10-02T19:51:53.545Z,0.93
2018-10-02T19:54:22.966Z,0.90
2018-10-02T19:56:51.380Z,0.77
2018-10-02T19:59:19.893Z,0.90
2018-10-02T20:01:48.313Z,0.90
2018-10-02T20:04:16.795Z,0.80
2018-10-02T20:06:45.316Z,0.90
2018-10-02T20:09:14.551Z,1.17
2018-10-02T20:11:42.974Z,0.90
2018-10-02T20:14:11.925Z,0.77
2018-10-02T20:16:40.417Z,1.03
2018-10-02T20:19:08.874Z,0.90
2018-10-02T20:21:37.369Z,0.97
2018-10-02T20:24:05.748Z,0.90
2018-10-02T20:26:34.198Z,1.30
2018-10-02T20:29:02.640Z,0.90
2018-10-02T20:31:32.849Z,0.90
2018-10-02T20:34:01.274Z,0.87
2018-10-02T20:36:29.697Z,0.93
2018-10-02T20:38:58.203Z,0.90
2018-10-02T20:41:26.863Z,0.90
2018-10-02T20:43:55.344Z,0.77
2018-10-02T20:46:23.696Z,0.77
2018-10-02T20:48:52.250Z,1.00
2018-10-02T20:51:20.626Z,0.70
2018-10-02T20:53:48.989Z,0.80
2018-10-02T20:56:18.036Z,1.00
2018-10-02T20:58:46.990Z,0.83
2018-10-02T21:01:15.376Z,0.80
2018-10-02T21:03:43.895Z,1.00
2018-10-02T21:06:12.291Z,0.80
2018-10-02T21:08:40.693Z,0.80
2018-10-02T21:11:09.057Z,0.90
2018-10-02T21:13:37.399Z,0.90
2018-10-02T21:16:05.792Z,0.67
2018-10-02T21:18:34.180Z,0.80
2018-10-02T21:21:02.528Z,1.00
2018-10-02T21:23:30.933Z,0.90
2018-10-02T21:25:59.237Z,0.90
2018-10-02T21:28:27.936Z,0.80
2018-10-02T21:30:56.291Z,1.00
2018-10-02T21:33:24.695Z,0.90
2018-10-02T21:35:53.037Z,0.83
2018-10-02T21:38:22.004Z,0.83
2018-10-02T21:40:50.409Z,0.73
2018-10-02T21:43:18.704Z,1.20
2018-10-02T21:45:47.009Z,0.80
2018-10-02T21:48:15.302Z,1.00
2018-10-02T21:50:43.598Z,0.80
2018-10-02T21:53:11.924Z,0.80
2018-10-02T21:55:40.224Z,0.90
2018-10-02T21:58:08.509Z,1.00
2018-10-02T22:00:36.934Z,1.00
2018-10-02T22:03:05.232Z,1.00
2018-10-02T22:05:34.076Z,1.10
2018-10-02T22:08:02.353Z,0.73
2018-10-02T22:10:30.661Z,1.00
2018-10-02T22:12:58.944Z,1.00
2018-10-02T22:15:27.305Z,0.90
2018-10-02T22:17:55.561Z,1.00
2018-10-02T22:20:23.842Z,0.83
2018-10-02T22:22:52.146Z,1.00
2018-10-02T22:25:21.464Z,1.00
2018-10-02T22:27:49.772Z,0.90
2018-10-02T22:30:18.102Z,1.03
2018-10-02T22:32:46.398Z,1.00
2018-10-02T22:35:14.673Z,1.07
2018-10-02T22:37:42.944Z,1.33
2018-10-02T22:40:11.329Z,1.00
2018-10-02T22:42:39.539Z,1.03
2018-10-02T22:45:07.917Z,1.00
2018-10-02T22:47:36.200Z,1.00
2018-10-02T22:50:04.576Z,1.10
2018-10-02T22:52:32.835Z,0.90
2018-10-02T22:55:01.117Z,0.90
2018-10-02T22:57:29.400Z,1.00
2018-10-02T22:59:57.712Z,1.00
2018-10-02T23:02:26.002Z,1.07
2018-10-02T23:04:54.295Z,0.90
2018-10-02T23:07:22.577Z,1.03
2018-10-02T23:09:50.878Z,1.00
2018-10-02T23:12:19.182Z,0.90
2018-10-02T23:14:47.452Z,0.93
2018-10-02T23:17:15.724Z,1.20
2018-10-02T23:19:43.996Z,1.20
2018-10-02T23:22:12.268Z,1.00
2018-10-02T23:24:40.609Z,1.50
2018-10-02T23:27:08.939Z,0.93
2018-10-02T23:29:37.225Z,1.20
2018-10-02T23:32:05.502Z,1.00
2018-10-02T23:34:33.811Z,1.00
2018-10-02T23:37:02.168Z,1.03
2018-10-02T23:39:30.436Z,1.20
2018-10-02T23:41:58.687Z,1.13
2018-10-02T23:44:26.967Z,1.10
2018-10-02T23:46:55.274Z,1.00
2018-10-02T23:49:23.568Z,1.10
2018-10-02T23:51:51.853Z,1.00
2018-10-02T23:54:20.130Z,1.10
2018-10-02T23:56:48.403Z,1.00
2018-10-02T23:59:16.769Z,1.10
